Middleway, West Virginia
Current Conditions -  °F | °C
As of 10:53 PM on Wednesday 28 Jan 2015 (Local Time) from KMRB Reporting Station
Clear Clear  
Wind Chill: 17°   Ceiling: Unl
Heat Index: 17°   Visibility: 10mi
Dew Point:   Wind: 0mph
Humidity: 59%   Direction: NA
Pressure: 30.34"   Gusts: NA
Location:  39.3256°N, 77.947°W
Report Text: KMRB 290353Z AUTO 00000KT 10SM CLR M08/M15 A3034 RMK AO2 SLP281 T10831150 TSNO
Loading
Personal Weather Stations






























Interactive Weather Map New forecast layout! Learn more

10-Day Weather Forecast

Advertisements
Track Severe Weather on mobile